Verndale, MN (56481)

5:11 AM CST on February 13, 2016 (GMT -0600)
Staples Municipal | | Change Station
CLOSE
Current Station
Airport
Location: Staples,
Elevation: 1286 ft
Nearby Weather Stations
Active Advisory: Wind Chill Advisory

Elev 1286 ft 46.38 °N, 94.81 °W | Updated 18 minutes ago

Mostly Cloudy
Mostly Cloudy
-18 °F
Feels Like -18 °F
N
0
Wind Variable Wind from North

Today
High -- | Low -- °F
--% Chance of Precip.
Yesterday
High -- | Low -- °F
Precip. -- in
Pressure 30.57 in
Visibility 10.0 miles
Clouds Clear
Dew Point -24 °F
Humidity 76%
Rainfall 0.00 in
Snow Depth Not available.
7:27 AM 5:41 PM
Waxing Crescent, 29% visible
METAR KSAZ 131053Z AUTO 00000KT 10SM CLR M28/M31 A3057 RMK AO2
Pressure 30.57 in
Visibility 10.0 miles
Clouds Clear
Dew Point -24 °F
Humidity 76%
Rainfall 0.00 in
Snow Depth Not available.
7:27 AM 5:41 PM
Waxing Crescent, 29% visible
METAR KSAZ 131053Z AUTO 00000KT 10SM CLR M28/M31 A3057 RMK AO2

10-Day Weather Forecast

Almanac

Astronomy

Feb. 13, 2016 Rise Set
Actual Time
Civil Twilight
Nautical Twilight
Astronomical Twilight
Moon
Length of Visible Light
Length of Day
Tomorrow will be .
, % of the Moon is Illuminated

Today's Extremes

State Highs State Lows

Community

WunderPhotos

Upload Photos

1,892,541 photos uploaded!

WunderBlog® & News

Nearby

Air Quality

  Air Quality AQ Index Pollutant
Not available.

Snow Depth

Station Depth Elevation

Earthquake Activity

City Distance Mag. Time & Date
Minimum magnitude displayed is 2.5.

Coastal Water Temperatures

Place Temperature

Stations

Nearby Weather Stations

Station Location Temp. Windchill Dew Point Humidity Wind Precip. Elev Updated Type
                   

Watches & Warnings

Wind Chill Advisory
Issued: 3:33 AM CST Feb. 13, 2016 – National Weather Service

... Wind Chill Advisory remains in effect until noon CST today...

* wind chill values... expect wind chills to range from 30 and 40
below zero until 11 am this morning.

* Impacts... the cold wind chills will cause frostbite in as
little as 30 minutes to exposed skin.

Precautionary/preparedness actions...

A Wind Chill Advisory means that cold air and the wind will
combine to create low wind chills. Frost bite and hypothermia can
occur if precautions are not taken. Make sure you wear a hat and
gloves.